Main page
METAR-TAF:

METAR-TAF

Airports :

Simón Bolívar International Airport

Caracas, Venezuela

latitude: 10-36N, longitude: 066-59W, elevation: 43 m

Current weather observation

The report was made 2 hours and 19 minutes ago, at 15:00 UTC
Wind 4 kt from the East
Temperature 30°C
Humidity 84%
Pressure
Visibility: 1013 m
Few clouds at a height of 1600 ft

METAR: SVMI 151500Z 09004KT 9999 FEW016 30/27 1013 RMK TURB LIG RWY10R

Time: 13:19 (17:19 UTC)

Forecast

The report was made 7 hours and 19 minutes ago, at 10:00 UTC
Forecast valid from 15 at 12 UTC to 16 at 12 UTC
Wind kt from the North
Visibility 10 km or more
Few clouds at a height of 1300 ft
Scattered clouds at a height of 6000 ft
Becoming
from 15 at 16 UTC to 15 at 22 UTC
Wind 2 kt from the East
Visibility 10 km or more
Scattered clouds at a height of 1600 ft
Broken clouds at a height of 10000 ft

TAF: SVMI 151000Z 1512/1612 00000KT 9999 FEW013 SCT060 TX33/1518Z TN22/1607Z BECMG 1516/1522 09002KT 9999 SCT016 BKN100

Weather observations and forecasts of more than 4000 airports (METAR and TAF reports).

The available stations are represented by yellow and red dots on the map.

Hover mouse over dot to see the name of the station.

Then click to see weather observations and forecasts.

To change the map : click on the green buttons with a black cross to zoom in, on the green button with a dash to zoom out, or on the green arrows for adjacent maps.


METAR-TAF: